sensor_id;sensor_type;location;lat;lon;timestamp;P1;durP1;ratioP1;P2;durP2;ratioP2
61471;SDS011;47337;54.068;12.114;2023-09-19T00:00:40;2.97;;;2.08;;
61471;SDS011;47337;54.068;12.114;2023-09-19T00:03:06;4.75;;;2.30;;
61471;SDS011;47337;54.068;12.114;2023-09-19T00:05:35;3.00;;;2.08;;
61471;SDS011;47337;54.068;12.114;2023-09-19T00:08:04;3.95;;;1.98;;
61471;SDS011;47337;54.068;12.114;2023-09-19T00:10:31;3.40;;;1.73;;
61471;SDS011;47337;54.068;12.114;2023-09-19T00:13:00;2.58;;;1.38;;
61471;SDS011;47337;54.068;12.114;2023-09-19T00:15:49;3.27;;;1.30;;
61471;SDS011;47337;54.068;12.114;2023-09-19T00:18:15;2.83;;;1.35;;
61471;SDS011;47337;54.068;12.114;2023-09-19T00:20:43;2.42;;;1.20;;
61471;SDS011;47337;54.068;12.114;2023-09-19T00:23:14;3.28;;;1.65;;
61471;SDS011;47337;54.068;12.114;2023-09-19T00:25:40;2.63;;;1.27;;
61471;SDS011;47337;54.068;12.114;2023-09-19T00:28:06;1.45;;;1.00;;
61471;SDS011;47337;54.068;12.114;2023-09-19T00:30:33;2.58;;;0.95;;
61471;SDS011;47337;54.068;12.114;2023-09-19T00:33:03;3.00;;;0.90;;
61471;SDS011;47337;54.068;12.114;2023-09-19T00:35:31;2.80;;;1.05;;
61471;SDS011;47337;54.068;12.114;2023-09-19T00:37:56;2.30;;;0.90;;
61471;SDS011;47337;54.068;12.114;2023-09-19T00:40:22;1.35;;;1.00;;
61471;SDS011;47337;54.068;12.114;2023-09-19T00:42:47;0.90;;;0.70;;
61471;SDS011;47337;54.068;12.114;2023-09-19T00:45:14;3.30;;;1.05;;
61471;SDS011;47337;54.068;12.114;2023-09-19T00:47:42;1.10;;;0.82;;
61471;SDS011;47337;54.068;12.114;2023-09-19T00:50:10;1.95;;;1.20;;
61471;SDS011;47337;54.068;12.114;2023-09-19T00:52:42;3.95;;;1.00;;
61471;SDS011;47337;54.068;12.114;2023-09-19T00:55:07;2.20;;;1.00;;
61471;SDS011;47337;54.068;12.114;2023-09-19T00:57:34;3.85;;;1.20;;
61471;SDS011;47337;54.068;12.114;2023-09-19T01:00:05;1.67;;;0.93;;
61471;SDS011;47337;54.068;12.114;2023-09-19T01:02:35;3.22;;;0.80;;
61471;SDS011;47337;54.068;12.114;2023-09-19T01:05:02;1.58;;;0.85;;
61471;SDS011;47337;54.068;12.114;2023-09-19T01:07:29;1.48;;;0.90;;
61471;SDS011;47337;54.068;12.114;2023-09-19T01:09:56;3.20;;;0.90;;
61471;SDS011;47337;54.068;12.114;2023-09-19T01:12:28;2.38;;;1.10;;
61471;SDS011;47337;54.068;12.114;2023-09-19T01:18:03;2.53;;;1.10;;
61471;SDS011;47337;54.068;12.114;2023-09-19T01:26:07;1.05;;;0.73;;
61471;SDS011;47337;54.068;12.114;2023-09-19T01:31:38;2.95;;;1.35;;
61471;SDS011;47337;54.068;12.114;2023-09-19T01:34:05;2.72;;;0.93;;
61471;SDS011;47337;54.068;12.114;2023-09-19T01:36:35;7.43;;;1.40;;
61471;SDS011;47337;54.068;12.114;2023-09-19T01:39:07;2.05;;;1.10;;
61471;SDS011;47337;54.068;12.114;2023-09-19T01:45:16;3.70;;;1.30;;
61471;SDS011;47337;54.068;12.114;2023-09-19T01:50:30;1.48;;;1.05;;
61471;SDS011;47337;54.068;12.114;2023-09-19T01:53:08;2.72;;;1.00;;
61471;SDS011;47337;54.068;12.114;2023-09-19T01:55:43;3.00;;;1.35;;
61471;SDS011;47337;54.068;12.114;2023-09-19T02:00:48;3.55;;;1.20;;
61471;SDS011;47337;54.068;12.114;2023-09-19T02:03:19;3.35;;;1.08;;
61471;SDS011;47337;54.068;12.114;2023-09-19T02:05:51;3.92;;;1.73;;
61471;SDS011;47337;54.068;12.114;2023-09-19T02:08:20;4.38;;;1.40;;
61471;SDS011;47337;54.068;12.114;2023-09-19T02:10:49;1.67;;;1.23;;
61471;SDS011;47337;54.068;12.114;2023-09-19T02:13:18;2.42;;;1.35;;
61471;SDS011;47337;54.068;12.114;2023-09-19T02:15:45;4.10;;;1.27;;
61471;SDS011;47337;54.068;12.114;2023-09-19T02:18:11;4.63;;;1.45;;
61471;SDS011;47337;54.068;12.114;2023-09-19T02:20:37;2.88;;;1.25;;
61471;SDS011;47337;54.068;12.114;2023-09-19T02:23:03;3.55;;;1.25;;
61471;SDS011;47337;54.068;12.114;2023-09-19T02:25:32;4.68;;;1.48;;
61471;SDS011;47337;54.068;12.114;2023-09-19T02:27:57;3.63;;;1.70;;
61471;SDS011;47337;54.068;12.114;2023-09-19T02:30:27;4.47;;;1.88;;
61471;SDS011;47337;54.068;12.114;2023-09-19T02:32:53;2.28;;;1.70;;
61471;SDS011;47337;54.068;12.114;2023-09-19T02:35:19;4.45;;;1.65;;
61471;SDS011;47337;54.068;12.114;2023-09-19T02:37:45;3.15;;;1.40;;
61471;SDS011;47337;54.068;12.114;2023-09-19T02:40:14;3.28;;;1.70;;
61471;SDS011;47337;54.068;12.114;2023-09-19T02:45:18;2.95;;;1.50;;
61471;SDS011;47337;54.068;12.114;2023-09-19T02:47:44;5.57;;;1.77;;
61471;SDS011;47337;54.068;12.114;2023-09-19T02:50:10;2.50;;;1.60;;
61471;SDS011;47337;54.068;12.114;2023-09-19T02:52:36;3.67;;;1.85;;
61471;SDS011;47337;54.068;12.114;2023-09-19T02:55:02;3.10;;;1.58;;
61471;SDS011;47337;54.068;12.114;2023-09-19T02:57:34;3.25;;;1.50;;
61471;SDS011;47337;54.068;12.114;2023-09-19T03:00:00;3.30;;;1.88;;
61471;SDS011;47337;54.068;12.114;2023-09-19T03:02:26;4.00;;;1.90;;
61471;SDS011;47337;54.068;12.114;2023-09-19T03:04:52;5.72;;;2.28;;
61471;SDS011;47337;54.068;12.114;2023-09-19T03:07:18;3.28;;;2.15;;
61471;SDS011;47337;54.068;12.114;2023-09-19T03:09:44;5.07;;;2.00;;
61471;SDS011;47337;54.068;12.114;2023-09-19T03:12:10;3.47;;;2.10;;
61471;SDS011;47337;54.068;12.114;2023-09-19T03:14:36;3.00;;;1.85;;
61471;SDS011;47337;54.068;12.114;2023-09-19T03:17:01;4.30;;;1.75;;
61471;SDS011;47337;54.068;12.114;2023-09-19T03:19:30;6.15;;;2.40;;
61471;SDS011;47337;54.068;12.114;2023-09-19T03:21:55;4.65;;;2.22;;
61471;SDS011;47337;54.068;12.114;2023-09-19T03:24:22;5.43;;;1.80;;
61471;SDS011;47337;54.068;12.114;2023-09-19T03:26:52;3.83;;;2.20;;
61471;SDS011;47337;54.068;12.114;2023-09-19T03:29:18;3.92;;;2.25;;
61471;SDS011;47337;54.068;12.114;2023-09-19T03:31:43;3.35;;;2.17;;
61471;SDS011;47337;54.068;12.114;2023-09-19T03:34:09;5.40;;;2.22;;
61471;SDS011;47337;54.068;12.114;2023-09-19T03:36:34;3.95;;;2.53;;
61471;SDS011;47337;54.068;12.114;2023-09-19T03:39:00;4.60;;;2.47;;
61471;SDS011;47337;54.068;12.114;2023-09-19T03:41:27;7.82;;;2.70;;
61471;SDS011;47337;54.068;12.114;2023-09-19T03:43:52;7.60;;;2.92;;
61471;SDS011;47337;54.068;12.114;2023-09-19T03:46:19;4.07;;;2.45;;
61471;SDS011;47337;54.068;12.114;2023-09-19T03:48:45;4.40;;;2.70;;
61471;SDS011;47337;54.068;12.114;2023-09-19T03:51:12;3.90;;;3.03;;
61471;SDS011;47337;54.068;12.114;2023-09-19T03:53:38;3.13;;;2.60;;
61471;SDS011;47337;54.068;12.114;2023-09-19T03:56:04;3.72;;;2.40;;
61471;SDS011;47337;54.068;12.114;2023-09-19T03:58:33;3.65;;;2.45;;
61471;SDS011;47337;54.068;12.114;2023-09-19T04:01:03;3.30;;;2.17;;
61471;SDS011;47337;54.068;12.114;2023-09-19T04:03:28;2.92;;;2.13;;
61471;SDS011;47337;54.068;12.114;2023-09-19T04:06:00;4.75;;;2.20;;
61471;SDS011;47337;54.068;12.114;2023-09-19T04:08:26;5.93;;;2.58;;
61471;SDS011;47337;54.068;12.114;2023-09-19T04:10:52;4.65;;;2.88;;
61471;SDS011;47337;54.068;12.114;2023-09-19T04:13:20;3.60;;;2.30;;
61471;SDS011;47337;54.068;12.114;2023-09-19T04:15:46;7.13;;;3.45;;
61471;SDS011;47337;54.068;12.114;2023-09-19T04:18:12;3.88;;;2.47;;
61471;SDS011;47337;54.068;12.114;2023-09-19T04:20:37;4.38;;;2.63;;
61471;SDS011;47337;54.068;12.114;2023-09-19T04:23:02;5.35;;;2.63;;
61471;SDS011;47337;54.068;12.114;2023-09-19T04:25:33;5.88;;;2.50;;
61471;SDS011;47337;54.068;12.114;2023-09-19T04:27:59;5.43;;;2.75;;
61471;SDS011;47337;54.068;12.114;2023-09-19T04:30:24;6.65;;;2.58;;
61471;SDS011;47337;54.068;12.114;2023-09-19T04:32:49;5.18;;;2.90;;
61471;SDS011;47337;54.068;12.114;2023-09-19T04:35:16;4.43;;;2.80;;
61471;SDS011;47337;54.068;12.114;2023-09-19T04:37:41;6.07;;;3.10;;
61471;SDS011;47337;54.068;12.114;2023-09-19T04:40:07;3.30;;;2.80;;
61471;SDS011;47337;54.068;12.114;2023-09-19T04:42:42;6.57;;;3.20;;
61471;SDS011;47337;54.068;12.114;2023-09-19T04:45:13;3.95;;;3.10;;
61471;SDS011;47337;54.068;12.114;2023-09-19T04:47:38;7.10;;;3.35;;
61471;SDS011;47337;54.068;12.114;2023-09-19T04:50:07;6.18;;;3.40;;
61471;SDS011;47337;54.068;12.114;2023-09-19T04:52:37;8.43;;;4.60;;
61471;SDS011;47337;54.068;12.114;2023-09-19T04:55:08;5.22;;;3.40;;
61471;SDS011;47337;54.068;12.114;2023-09-19T04:57:36;6.18;;;3.67;;
61471;SDS011;47337;54.068;12.114;2023-09-19T05:00:02;7.15;;;4.10;;
61471;SDS011;47337;54.068;12.114;2023-09-19T05:02:37;6.80;;;3.90;;
61471;SDS011;47337;54.068;12.114;2023-09-19T05:05:02;5.55;;;4.32;;
61471;SDS011;47337;54.068;12.114;2023-09-19T05:07:29;4.95;;;3.30;;
61471;SDS011;47337;54.068;12.114;2023-09-19T05:09:55;6.22;;;3.50;;
61471;SDS011;47337;54.068;12.114;2023-09-19T05:12:20;5.15;;;3.67;;
61471;SDS011;47337;54.068;12.114;2023-09-19T05:14:48;5.28;;;3.63;;
61471;SDS011;47337;54.068;12.114;2023-09-19T05:17:13;6.15;;;3.67;;
61471;SDS011;47337;54.068;12.114;2023-09-19T05:19:42;6.05;;;3.70;;
61471;SDS011;47337;54.068;12.114;2023-09-19T05:22:09;4.93;;;3.22;;
61471;SDS011;47337;54.068;12.114;2023-09-19T05:24:34;5.47;;;3.60;;
61471;SDS011;47337;54.068;12.114;2023-09-19T05:27:00;7.82;;;3.17;;
61471;SDS011;47337;54.068;12.114;2023-09-19T05:29:26;7.15;;;3.55;;
61471;SDS011;47337;54.068;12.114;2023-09-19T05:31:53;6.72;;;3.35;;
61471;SDS011;47337;54.068;12.114;2023-09-19T05:34:19;7.88;;;3.50;;
61471;SDS011;47337;54.068;12.114;2023-09-19T05:36:47;7.43;;;2.97;;
61471;SDS011;47337;54.068;12.114;2023-09-19T05:39:15;6.32;;;3.20;;
61471;SDS011;47337;54.068;12.114;2023-09-19T05:41:40;6.88;;;3.03;;
61471;SDS011;47337;54.068;12.114;2023-09-19T05:44:06;5.55;;;2.97;;
61471;SDS011;47337;54.068;12.114;2023-09-19T05:46:32;6.85;;;3.15;;
61471;SDS011;47337;54.068;12.114;2023-09-19T05:49:00;6.78;;;3.00;;
61471;SDS011;47337;54.068;12.114;2023-09-19T05:51:25;4.97;;;2.70;;
61471;SDS011;47337;54.068;12.114;2023-09-19T05:53:53;3.25;;;2.30;;
61471;SDS011;47337;54.068;12.114;2023-09-19T05:56:19;3.88;;;2.75;;
61471;SDS011;47337;54.068;12.114;2023-09-19T05:58:45;4.85;;;2.70;;
61471;SDS011;47337;54.068;12.114;2023-09-19T06:01:14;7.07;;;2.42;;
61471;SDS011;47337;54.068;12.114;2023-09-19T06:03:42;3.72;;;2.40;;
61471;SDS011;47337;54.068;12.114;2023-09-19T06:06:07;6.93;;;2.95;;
61471;SDS011;47337;54.068;12.114;2023-09-19T06:08:35;4.80;;;2.20;;
61471;SDS011;47337;54.068;12.114;2023-09-19T06:11:01;6.65;;;2.40;;
61471;SDS011;47337;54.068;12.114;2023-09-19T06:13:29;6.07;;;2.30;;
61471;SDS011;47337;54.068;12.114;2023-09-19T06:15:55;5.20;;;2.65;;
61471;SDS011;47337;54.068;12.114;2023-09-19T06:18:23;5.20;;;2.30;;
61471;SDS011;47337;54.068;12.114;2023-09-19T06:20:52;5.20;;;2.13;;
61471;SDS011;47337;54.068;12.114;2023-09-19T06:23:18;4.32;;;2.00;;
61471;SDS011;47337;54.068;12.114;2023-09-19T06:25:45;4.93;;;1.92;;
61471;SDS011;47337;54.068;12.114;2023-09-19T06:28:11;4.55;;;1.70;;
61471;SDS011;47337;54.068;12.114;2023-09-19T06:30:42;9.02;;;2.50;;
61471;SDS011;47337;54.068;12.114;2023-09-19T06:33:07;4.05;;;1.73;;
61471;SDS011;47337;54.068;12.114;2023-09-19T06:35:33;4.95;;;1.88;;
61471;SDS011;47337;54.068;12.114;2023-09-19T06:38:01;4.93;;;1.52;;
61471;SDS011;47337;54.068;12.114;2023-09-19T06:40:28;6.05;;;2.42;;
61471;SDS011;47337;54.068;12.114;2023-09-19T06:42:53;6.18;;;2.10;;
61471;SDS011;47337;54.068;12.114;2023-09-19T06:45:24;3.60;;;1.70;;
61471;SDS011;47337;54.068;12.114;2023-09-19T06:47:51;5.07;;;1.60;;
61471;SDS011;47337;54.068;12.114;2023-09-19T06:50:18;5.60;;;1.40;;
61471;SDS011;47337;54.068;12.114;2023-09-19T06:52:51;4.50;;;1.50;;
61471;SDS011;47337;54.068;12.114;2023-09-19T06:55:21;4.53;;;1.50;;
61471;SDS011;47337;54.068;12.114;2023-09-19T06:57:50;4.80;;;1.80;;
61471;SDS011;47337;54.068;12.114;2023-09-19T07:00:21;3.92;;;1.55;;
61471;SDS011;47337;54.068;12.114;2023-09-19T07:03:00;5.10;;;1.75;;
61471;SDS011;47337;54.068;12.114;2023-09-19T07:05:33;3.35;;;1.55;;
61471;SDS011;47337;54.068;12.114;2023-09-19T07:08:01;7.13;;;1.73;;
61471;SDS011;47337;54.068;12.114;2023-09-19T07:10:27;6.15;;;2.03;;
61471;SDS011;47337;54.068;12.114;2023-09-19T07:13:05;7.13;;;1.73;;
61471;SDS011;47337;54.068;12.114;2023-09-19T07:15:37;9.93;;;1.88;;
61471;SDS011;47337;54.068;12.114;2023-09-19T07:18:06;5.63;;;1.52;;
61471;SDS011;47337;54.068;12.114;2023-09-19T07:20:35;6.60;;;1.42;;
61471;SDS011;47337;54.068;12.114;2023-09-19T07:23:02;5.63;;;1.40;;
61471;SDS011;47337;54.068;12.114;2023-09-19T07:25:27;7.40;;;1.50;;
61471;SDS011;47337;54.068;12.114;2023-09-19T07:27:59;5.25;;;1.15;;
61471;SDS011;47337;54.068;12.114;2023-09-19T07:30:27;4.55;;;1.73;;
61471;SDS011;47337;54.068;12.114;2023-09-19T07:32:55;7.32;;;1.33;;
61471;SDS011;47337;54.068;12.114;2023-09-19T07:35:21;6.75;;;1.52;;
61471;SDS011;47337;54.068;12.114;2023-09-19T07:37:47;4.70;;;1.10;;
61471;SDS011;47337;54.068;12.114;2023-09-19T07:40:15;3.67;;;1.40;;
61471;SDS011;47337;54.068;12.114;2023-09-19T07:42:41;7.53;;;1.40;;
61471;SDS011;47337;54.068;12.114;2023-09-19T07:45:09;6.68;;;1.50;;
61471;SDS011;47337;54.068;12.114;2023-09-19T07:47:39;5.13;;;1.58;;
61471;SDS011;47337;54.068;12.114;2023-09-19T07:50:17;6.55;;;1.33;;
61471;SDS011;47337;54.068;12.114;2023-09-19T07:52:44;4.90;;;1.30;;
61471;SDS011;47337;54.068;12.114;2023-09-19T07:55:09;5.15;;;1.25;;
61471;SDS011;47337;54.068;12.114;2023-09-19T07:57:38;5.13;;;1.48;;
61471;SDS011;47337;54.068;12.114;2023-09-19T08:00:07;6.60;;;1.17;;
61471;SDS011;47337;54.068;12.114;2023-09-19T08:02:36;8.93;;;1.40;;
61471;SDS011;47337;54.068;12.114;2023-09-19T08:05:04;5.22;;;1.25;;
61471;SDS011;47337;54.068;12.114;2023-09-19T08:07:36;5.05;;;1.00;;
61471;SDS011;47337;54.068;12.114;2023-09-19T08:10:06;6.30;;;1.65;;
61471;SDS011;47337;54.068;12.114;2023-09-19T08:12:44;7.28;;;1.30;;
61471;SDS011;47337;54.068;12.114;2023-09-19T08:17:39;5.93;;;1.20;;
61471;SDS011;47337;54.068;12.114;2023-09-19T08:20:05;5.00;;;1.80;;
61471;SDS011;47337;54.068;12.114;2023-09-19T08:22:40;5.07;;;1.35;;
61471;SDS011;47337;54.068;12.114;2023-09-19T08:25:06;4.63;;;1.52;;
61471;SDS011;47337;54.068;12.114;2023-09-19T08:27:32;5.85;;;1.10;;
61471;SDS011;47337;54.068;12.114;2023-09-19T08:29:57;5.70;;;1.58;;
61471;SDS011;47337;54.068;12.114;2023-09-19T08:32:22;6.95;;;1.55;;
61471;SDS011;47337;54.068;12.114;2023-09-19T08:34:50;8.25;;;1.45;;
61471;SDS011;47337;54.068;12.114;2023-09-19T08:37:16;9.95;;;1.42;;
61471;SDS011;47337;54.068;12.114;2023-09-19T08:39:43;7.30;;;1.60;;
61471;SDS011;47337;54.068;12.114;2023-09-19T08:42:11;6.80;;;1.27;;
61471;SDS011;47337;54.068;12.114;2023-09-19T08:44:37;4.13;;;1.27;;
61471;SDS011;47337;54.068;12.114;2023-09-19T08:47:14;6.32;;;1.52;;
61471;SDS011;47337;54.068;12.114;2023-09-19T08:52:42;15.73;;;2.28;;
61471;SDS011;47337;54.068;12.114;2023-09-19T08:55:12;21.17;;;2.22;;
61471;SDS011;47337;54.068;12.114;2023-09-19T08:57:45;6.05;;;1.55;;
61471;SDS011;47337;54.068;12.114;2023-09-19T09:00:15;3.78;;;1.27;;
61471;SDS011;47337;54.068;12.114;2023-09-19T09:02:46;7.57;;;1.60;;
61471;SDS011;47337;54.068;12.114;2023-09-19T09:05:14;6.43;;;1.23;;
61471;SDS011;47337;54.068;12.114;2023-09-19T09:07:47;5.93;;;1.38;;
61471;SDS011;47337;54.068;12.114;2023-09-19T09:10:16;6.88;;;1.45;;
61471;SDS011;47337;54.068;12.114;2023-09-19T09:12:43;6.28;;;2.10;;
61471;SDS011;47337;54.068;12.114;2023-09-19T09:15:09;8.15;;;1.63;;
61471;SDS011;47337;54.068;12.114;2023-09-19T09:17:36;6.70;;;1.25;;
61471;SDS011;47337;54.068;12.114;2023-09-19T09:20:05;7.70;;;1.63;;
61471;SDS011;47337;54.068;12.114;2023-09-19T09:22:33;7.57;;;1.40;;
61471;SDS011;47337;54.068;12.114;2023-09-19T09:25:01;6.35;;;1.63;;
61471;SDS011;47337;54.068;12.114;2023-09-19T09:27:29;8.30;;;1.38;;
61471;SDS011;47337;54.068;12.114;2023-09-19T09:29:57;5.07;;;1.20;;
61471;SDS011;47337;54.068;12.114;2023-09-19T09:32:29;9.48;;;2.00;;
61471;SDS011;47337;54.068;12.114;2023-09-19T09:34:59;7.00;;;1.70;;
61471;SDS011;47337;54.068;12.114;2023-09-19T09:37:25;8.73;;;1.58;;
61471;SDS011;47337;54.068;12.114;2023-09-19T09:40:00;6.97;;;1.55;;
61471;SDS011;47337;54.068;12.114;2023-09-19T09:42:40;4.57;;;1.50;;
61471;SDS011;47337;54.068;12.114;2023-09-19T09:45:24;6.88;;;1.67;;
61471;SDS011;47337;54.068;12.114;2023-09-19T09:48:01;3.50;;;1.35;;
61471;SDS011;47337;54.068;12.114;2023-09-19T09:58:25;6.63;;;1.98;;
61471;SDS011;47337;54.068;12.114;2023-09-19T10:00:57;5.80;;;1.50;;
61471;SDS011;47337;54.068;12.114;2023-09-19T10:03:34;7.07;;;1.58;;
61471;SDS011;47337;54.068;12.114;2023-09-19T10:06:11;8.45;;;2.35;;
61471;SDS011;47337;54.068;12.114;2023-09-19T10:09:02;7.85;;;2.17;;
61471;SDS011;47337;54.068;12.114;2023-09-19T10:12:05;5.30;;;1.42;;
61471;SDS011;47337;54.068;12.114;2023-09-19T10:14:34;8.50;;;1.50;;
61471;SDS011;47337;54.068;12.114;2023-09-19T10:17:06;5.07;;;1.58;;
61471;SDS011;47337;54.068;12.114;2023-09-19T10:19:53;4.80;;;1.30;;
61471;SDS011;47337;54.068;12.114;2023-09-19T10:22:22;2.83;;;1.27;;
61471;SDS011;47337;54.068;12.114;2023-09-19T10:24:49;7.72;;;1.70;;
61471;SDS011;47337;54.068;12.114;2023-09-19T10:27:18;2.47;;;1.27;;
61471;SDS011;47337;54.068;12.114;2023-09-19T10:29:45;3.72;;;1.60;;
61471;SDS011;47337;54.068;12.114;2023-09-19T10:32:15;6.43;;;1.55;;
61471;SDS011;47337;54.068;12.114;2023-09-19T10:34:44;4.50;;;1.42;;
61471;SDS011;47337;54.068;12.114;2023-09-19T10:37:12;4.32;;;1.40;;
61471;SDS011;47337;54.068;12.114;2023-09-19T10:39:38;6.10;;;1.63;;
61471;SDS011;47337;54.068;12.114;2023-09-19T10:42:05;10.60;;;1.70;;
61471;SDS011;47337;54.068;12.114;2023-09-19T10:44:34;4.22;;;1.55;;
61471;SDS011;47337;54.068;12.114;2023-09-19T10:47:08;6.88;;;1.98;;
61471;SDS011;47337;54.068;12.114;2023-09-19T10:49:44;5.20;;;1.58;;
61471;SDS011;47337;54.068;12.114;2023-09-19T10:52:17;4.95;;;1.42;;
61471;SDS011;47337;54.068;12.114;2023-09-19T10:54:48;6.88;;;1.52;;
61471;SDS011;47337;54.068;12.114;2023-09-19T10:57:23;6.18;;;1.63;;
61471;SDS011;47337;54.068;12.114;2023-09-19T11:00:06;6.07;;;1.80;;
61471;SDS011;47337;54.068;12.114;2023-09-19T11:06:02;7.72;;;1.85;;
61471;SDS011;47337;54.068;12.114;2023-09-19T11:08:55;4.50;;;1.50;;
61471;SDS011;47337;54.068;12.114;2023-09-19T11:11:40;6.03;;;1.65;;
61471;SDS011;47337;54.068;12.114;2023-09-19T11:28:37;7.22;;;1.75;;
61471;SDS011;47337;54.068;12.114;2023-09-19T11:30:52;3.50;;;1.30;;
61471;SDS011;47337;54.068;12.114;2023-09-19T11:33:22;5.22;;;1.40;;
61471;SDS011;47337;54.068;12.114;2023-09-19T11:43:54;4.72;;;1.58;;
61471;SDS011;47337;54.068;12.114;2023-09-19T11:49:25;4.03;;;1.60;;
61471;SDS011;47337;54.068;12.114;2023-09-19T11:51:55;8.27;;;1.88;;
61471;SDS011;47337;54.068;12.114;2023-09-19T11:54:23;6.82;;;1.70;;
61471;SDS011;47337;54.068;12.114;2023-09-19T11:56:54;6.85;;;1.48;;
61471;SDS011;47337;54.068;12.114;2023-09-19T11:59:20;6.78;;;1.80;;
61471;SDS011;47337;54.068;12.114;2023-09-19T12:04:35;5.82;;;1.45;;
61471;SDS011;47337;54.068;12.114;2023-09-19T12:07:07;6.20;;;1.57;;
61471;SDS011;47337;54.068;12.114;2023-09-19T12:09:44;3.42;;;1.20;;
61471;SDS011;47337;54.068;12.114;2023-09-19T12:12:23;4.63;;;1.60;;
61471;SDS011;47337;54.068;12.114;2023-09-19T12:14:53;5.72;;;1.90;;
61471;SDS011;47337;54.068;12.114;2023-09-19T12:17:19;9.48;;;1.98;;
61471;SDS011;47337;54.068;12.114;2023-09-19T12:19:55;4.95;;;1.40;;
61471;SDS011;47337;54.068;12.114;2023-09-19T12:22:21;4.90;;;1.20;;
61471;SDS011;47337;54.068;12.114;2023-09-19T12:24:47;4.95;;;1.75;;
61471;SDS011;47337;54.068;12.114;2023-09-19T12:27:13;5.93;;;1.42;;
61471;SDS011;47337;54.068;12.114;2023-09-19T12:29:43;8.65;;;1.58;;
61471;SDS011;47337;54.068;12.114;2023-09-19T12:32:10;5.45;;;1.52;;
61471;SDS011;47337;54.068;12.114;2023-09-19T12:34:36;6.93;;;1.23;;
61471;SDS011;47337;54.068;12.114;2023-09-19T12:37:08;5.63;;;2.22;;
61471;SDS011;47337;54.068;12.114;2023-09-19T12:39:52;7.00;;;1.70;;
61471;SDS011;47337;54.068;12.114;2023-09-19T12:42:23;4.85;;;1.45;;
61471;SDS011;47337;54.068;12.114;2023-09-19T12:44:54;6.32;;;1.42;;
61471;SDS011;47337;54.068;12.114;2023-09-19T12:47:22;4.32;;;1.23;;
61471;SDS011;47337;54.068;12.114;2023-09-19T12:52:39;4.28;;;1.38;;
61471;SDS011;47337;54.068;12.114;2023-09-19T12:55:06;6.00;;;1.70;;
61471;SDS011;47337;54.068;12.114;2023-09-19T12:57:35;6.32;;;2.22;;
61471;SDS011;47337;54.068;12.114;2023-09-19T13:00:04;3.70;;;1.42;;
61471;SDS011;47337;54.068;12.114;2023-09-19T13:02:43;8.30;;;1.52;;
61471;SDS011;47337;54.068;12.114;2023-09-19T13:05:58;7.28;;;1.73;;
61471;SDS011;47337;54.068;12.114;2023-09-19T13:08:29;7.70;;;1.83;;
61471;SDS011;47337;54.068;12.114;2023-09-19T13:11:03;6.95;;;1.67;;
61471;SDS011;47337;54.068;12.114;2023-09-19T13:13:32;7.63;;;1.40;;
61471;SDS011;47337;54.068;12.114;2023-09-19T13:16:03;3.05;;;1.30;;
61471;SDS011;47337;54.068;12.114;2023-09-19T13:18:41;4.90;;;1.20;;
61471;SDS011;47337;54.068;12.114;2023-09-19T13:21:08;6.18;;;1.60;;
61471;SDS011;47337;54.068;12.114;2023-09-19T13:23:37;4.57;;;1.38;;
61471;SDS011;47337;54.068;12.114;2023-09-19T13:26:03;5.25;;;1.35;;
61471;SDS011;47337;54.068;12.114;2023-09-19T13:28:31;4.55;;;1.45;;
61471;SDS011;47337;54.068;12.114;2023-09-19T13:30:58;6.70;;;1.20;;
61471;SDS011;47337;54.068;12.114;2023-09-19T13:33:26;4.35;;;1.58;;
61471;SDS011;47337;54.068;12.114;2023-09-19T13:35:51;3.92;;;1.30;;
61471;SDS011;47337;54.068;12.114;2023-09-19T13:38:20;6.45;;;1.80;;
61471;SDS011;47337;54.068;12.114;2023-09-19T13:40:47;2.97;;;1.05;;
61471;SDS011;47337;54.068;12.114;2023-09-19T13:43:13;4.25;;;1.40;;
61471;SDS011;47337;54.068;12.114;2023-09-19T13:45:39;3.95;;;1.17;;
61471;SDS011;47337;54.068;12.114;2023-09-19T13:48:07;6.50;;;1.05;;
61471;SDS011;47337;54.068;12.114;2023-09-19T13:50:33;3.47;;;1.35;;
61471;SDS011;47337;54.068;12.114;2023-09-19T13:52:59;5.88;;;1.38;;
61471;SDS011;47337;54.068;12.114;2023-09-19T13:55:25;4.40;;;1.20;;
61471;SDS011;47337;54.068;12.114;2023-09-19T13:57:53;4.32;;;1.17;;
61471;SDS011;47337;54.068;12.114;2023-09-19T14:00:23;4.80;;;1.38;;
61471;SDS011;47337;54.068;12.114;2023-09-19T14:02:49;2.78;;;0.90;;
61471;SDS011;47337;54.068;12.114;2023-09-19T14:05:15;4.35;;;1.30;;
61471;SDS011;47337;54.068;12.114;2023-09-19T14:07:45;7.00;;;1.63;;
61471;SDS011;47337;54.068;12.114;2023-09-19T14:10:13;3.42;;;1.50;;
61471;SDS011;47337;54.068;12.114;2023-09-19T14:12:40;3.75;;;1.40;;
61471;SDS011;47337;54.068;12.114;2023-09-19T14:15:12;5.47;;;1.40;;
61471;SDS011;47337;54.068;12.114;2023-09-19T14:17:43;3.40;;;1.42;;
61471;SDS011;47337;54.068;12.114;2023-09-19T14:20:10;6.97;;;1.42;;
61471;SDS011;47337;54.068;12.114;2023-09-19T14:22:36;4.68;;;2.00;;
61471;SDS011;47337;54.068;12.114;2023-09-19T14:25:02;5.28;;;1.48;;
61471;SDS011;47337;54.068;12.114;2023-09-19T14:27:29;3.40;;;1.33;;
61471;SDS011;47337;54.068;12.114;2023-09-19T14:29:54;2.55;;;1.00;;
61471;SDS011;47337;54.068;12.114;2023-09-19T14:32:24;6.22;;;1.30;;
61471;SDS011;47337;54.068;12.114;2023-09-19T14:34:49;5.70;;;1.42;;
61471;SDS011;47337;54.068;12.114;2023-09-19T14:37:15;8.02;;;1.77;;
61471;SDS011;47337;54.068;12.114;2023-09-19T14:39:43;5.50;;;1.65;;
61471;SDS011;47337;54.068;12.114;2023-09-19T14:42:11;5.28;;;1.40;;
61471;SDS011;47337;54.068;12.114;2023-09-19T14:44:36;6.20;;;1.50;;
61471;SDS011;47337;54.068;12.114;2023-09-19T14:47:02;5.57;;;1.70;;
61471;SDS011;47337;54.068;12.114;2023-09-19T14:49:35;5.13;;;1.45;;
61471;SDS011;47337;54.068;12.114;2023-09-19T14:52:07;4.20;;;1.70;;
61471;SDS011;47337;54.068;12.114;2023-09-19T14:54:33;3.92;;;1.25;;
61471;SDS011;47337;54.068;12.114;2023-09-19T14:57:03;4.68;;;1.48;;
61471;SDS011;47337;54.068;12.114;2023-09-19T14:59:32;5.43;;;1.77;;
61471;SDS011;47337;54.068;12.114;2023-09-19T15:02:01;7.22;;;1.65;;
61471;SDS011;47337;54.068;12.114;2023-09-19T15:04:28;4.75;;;1.48;;
61471;SDS011;47337;54.068;12.114;2023-09-19T15:06:54;6.43;;;1.80;;
61471;SDS011;47337;54.068;12.114;2023-09-19T15:09:20;4.72;;;1.92;;
61471;SDS011;47337;54.068;12.114;2023-09-19T15:11:54;9.68;;;1.85;;
61471;SDS011;47337;54.068;12.114;2023-09-19T15:14:22;6.80;;;1.73;;
61471;SDS011;47337;54.068;12.114;2023-09-19T15:16:50;6.32;;;2.05;;
61471;SDS011;47337;54.068;12.114;2023-09-19T15:19:15;5.07;;;2.00;;
61471;SDS011;47337;54.068;12.114;2023-09-19T15:21:44;3.42;;;1.42;;
61471;SDS011;47337;54.068;12.114;2023-09-19T15:24:09;5.15;;;1.58;;
61471;SDS011;47337;54.068;12.114;2023-09-19T15:26:35;11.45;;;3.15;;
61471;SDS011;47337;54.068;12.114;2023-09-19T15:29:07;5.30;;;1.58;;
61471;SDS011;47337;54.068;12.114;2023-09-19T15:31:34;4.40;;;2.25;;
61471;SDS011;47337;54.068;12.114;2023-09-19T15:34:03;8.25;;;2.25;;
61471;SDS011;47337;54.068;12.114;2023-09-19T15:36:32;7.65;;;2.03;;
61471;SDS011;47337;54.068;12.114;2023-09-19T15:39:01;5.25;;;1.55;;
61471;SDS011;47337;54.068;12.114;2023-09-19T15:41:29;6.47;;;1.65;;
61471;SDS011;47337;54.068;12.114;2023-09-19T15:43:56;7.63;;;1.73;;
61471;SDS011;47337;54.068;12.114;2023-09-19T15:46:26;4.07;;;2.20;;
61471;SDS011;47337;54.068;12.114;2023-09-19T15:48:55;8.90;;;1.98;;
61471;SDS011;47337;54.068;12.114;2023-09-19T15:51:22;7.32;;;2.30;;
61471;SDS011;47337;54.068;12.114;2023-09-19T15:53:52;5.90;;;2.03;;